Time;durP1;ratioP1;P1;durP2;ratioP2;P2;SDS_P1;SDS_P2;PMS_P1;PMS_P2;Temp;Humidity;BMP_temperature;BMP_pressure;BME280_temperature;BME280_humidity;BME280_pressure;Samples;Min_cycle;Max_cycle;Signal;HPM_P1;HPM_P2
2022/08/09 00:00:34;;;;;;;1.90;1.45;;;22.10;86.60;;;;;;5126540;27;20202;-38
2022/08/09 00:03:10;;;;;;;2.50;1.75;;;22.10;86.60;;;;;;5119249;27;20567;-37
2022/08/09 00:05:57;;;;;;;3.85;1.58;;;22.10;87.10;;;;;;5116355;27;20238;-37
2022/08/09 00:08:47;;;;;;;2.60;1.55;;;22.00;86.80;;;;;;5123125;27;20610;-37
2022/08/09 00:11:20;;;;;;;4.53;1.30;;;22.00;86.70;;;;;;5118514;27;21083;-38
2022/08/09 00:13:53;;;;;;;4.07;1.75;;;21.90;86.60;;;;;;5111113;27;20245;-38
2022/08/09 00:16:23;;;;;;;1.67;1.35;;;21.90;87.30;;;;;;5116250;27;20230;-38
2022/08/09 00:19:03;;;;;;;1.55;1.40;;;21.90;87.50;;;;;;5137249;27;20257;-38
2022/08/09 00:21:38;;;;;;;1.45;1.27;;;21.90;87.20;;;;;;5132550;27;20228;-37
2022/08/09 00:24:24;;;;;;;1.33;1.23;;;21.80;87.00;;;;;;5113930;27;20210;-38
2022/08/09 00:26:54;;;;;;;3.53;1.60;;;21.80;87.30;;;;;;5128965;27;20189;-37
2022/08/09 00:29:26;;;;;;;2.60;1.40;;;21.80;87.20;;;;;;5099902;27;20205;-37
2022/08/09 00:32:14;;;;;;;2.35;1.50;;;21.80;87.20;;;;;;5118404;27;20213;-38
2022/08/09 00:34:54;;;;;;;3.45;1.58;;;21.70;87.20;;;;;;5103399;27;20209;-38
2022/08/09 00:37:23;;;;;;;6.43;2.30;;;21.70;88.40;;;;;;5124311;27;20331;-38
2022/08/09 00:39:51;;;;;;;2.75;1.52;;;21.70;88.60;;;;;;5105068;27;20202;-38
2022/08/09 00:42:38;;;;;;;2.78;1.70;;;21.70;88.00;;;;;;5112595;27;20206;-38
2022/08/09 00:45:25;;;;;;;1.42;1.30;;;21.70;90.00;;;;;;5119194;27;20201;-38
2022/08/09 00:47:53;;;;;;;5.00;1.90;;;21.60;88.30;;;;;;5131067;27;20251;-40
2022/08/09 00:50:25;;;;;;;1.80;1.40;;;21.60;89.10;;;;;;5127968;27;20625;-40
2022/08/09 00:52:53;;;;;;;2.70;1.52;;;21.50;88.20;;;;;;5130761;27;20209;-37
2022/08/09 00:55:23;;;;;;;2.65;1.77;;;21.50;88.40;;;;;;5125021;27;21179;-37
2022/08/09 00:58:13;;;;;;;2.78;1.60;;;21.40;88.10;;;;;;5115604;27;20246;-38
2022/08/09 01:00:54;;;;;;;2.38;1.70;;;21.40;88.80;;;;;;5122288;27;20202;-38
2022/08/09 01:03:35;;;;;;;2.95;2.00;;;21.40;88.80;;;;;;5120093;27;20737;-38
2022/08/09 01:06:20;;;;;;;4.20;1.70;;;21.30;88.90;;;;;;5123116;27;20297;-38
2022/08/09 01:08:54;;;;;;;3.00;2.00;;;21.30;90.20;;;;;;5125871;27;20205;-38
2022/08/09 01:11:27;;;;;;;3.60;1.95;;;21.30;89.60;;;;;;5095985;27;20208;-37
2022/08/09 01:14:07;;;;;;;3.60;2.00;;;21.20;89.70;;;;;;5112974;27;20205;-38
2022/08/09 01:16:44;;;;;;;4.47;1.88;;;21.20;90.00;;;;;;5122797;27;20245;-38
2022/08/09 01:19:43;;;;;;;5.88;1.75;;;21.10;89.30;;;;;;5117406;27;20198;-38
2022/08/09 01:22:46;;;;;;;2.58;1.95;;;21.10;89.40;;;;;;5113268;27;20226;-38
2022/08/09 01:25:29;;;;;;;3.33;2.35;;;21.10;91.10;;;;;;5109882;27;20285;-37
2022/08/09 01:28:02;;;;;;;2.40;2.20;;;21.00;90.70;;;;;;5126391;27;20213;-38
2022/08/09 01:30:33;;;;;;;3.28;1.85;;;21.00;90.80;;;;;;5100856;27;20220;-39
2022/08/09 01:33:24;;;;;;;1.95;1.75;;;20.90;90.00;;;;;;5123331;27;20247;-37
2022/08/09 01:36:07;;;;;;;3.63;2.22;;;20.80;90.00;;;;;;5118318;27;20202;-37
2022/08/09 01:38:37;;;;;;;1.95;1.75;;;20.80;90.10;;;;;;5114057;27;20213;-37
2022/08/09 01:41:17;;;;;;;2.10;1.90;;;20.80;90.10;;;;;;5118021;27;20235;-38
2022/08/09 01:43:59;;;;;;;2.75;1.80;;;20.70;90.10;;;;;;5128169;27;20286;-39
2022/08/09 01:46:32;;;;;;;3.90;2.17;;;20.70;90.00;;;;;;5128852;27;20204;-38
2022/08/09 01:49:06;;;;;;;3.10;2.03;;;20.60;90.00;;;;;;5122383;27;20254;-38
2022/08/09 01:51:48;;;;;;;3.25;1.85;;;20.60;90.20;;;;;;5121652;27;20203;-39
2022/08/09 01:54:45;;;;;;;2.95;1.98;;;20.60;90.10;;;;;;5126389;27;21031;-38
2022/08/09 01:57:22;;;;;;;2.83;2.17;;;20.60;90.00;;;;;;5126034;27;20217;-40
2022/08/09 01:59:54;;;;;;;3.90;2.25;;;20.60;90.20;;;;;;5119983;27;20206;-39
2022/08/09 02:02:31;;;;;;;3.33;2.63;;;20.60;90.40;;;;;;5124541;27;20682;-38
2022/08/09 02:05:03;;;;;;;4.22;2.10;;;20.60;90.50;;;;;;5106684;27;20297;-40
2022/08/09 02:07:52;;;;;;;3.80;2.20;;;20.60;90.30;;;;;;5113854;27;20963;-40
2022/08/09 02:10:44;;;;;;;4.78;2.22;;;20.50;90.30;;;;;;5123205;27;20213;-39
2022/08/09 02:13:23;;;;;;;2.72;2.10;;;20.50;90.20;;;;;;5120794;27;20254;-40
2022/08/09 02:16:06;;;;;;;2.88;2.30;;;20.50;90.60;;;;;;5109384;27;20202;-39
2022/08/09 02:18:38;;;;;;;3.42;2.08;;;20.40;90.30;;;;;;5101737;27;20202;-38
2022/08/09 02:21:15;;;;;;;3.05;2.30;;;20.40;90.30;;;;;;5111048;27;20228;-38
2022/08/09 02:23:59;;;;;;;4.20;2.40;;;20.40;90.50;;;;;;5104791;28;20213;-38
2022/08/09 02:26:34;;;;;;;3.50;2.50;;;20.40;90.50;;;;;;5092712;28;20198;-38
2022/08/09 02:29:20;;;;;;;5.32;2.20;;;20.40;90.40;;;;;;5109062;27;20271;-38
2022/08/09 02:31:49;;;;;;;4.93;2.63;;;20.40;90.50;;;;;;5125764;27;20645;-41
2022/08/09 02:34:21;;;;;;;4.75;2.85;;;20.40;90.30;;;;;;5127502;27;20251;-40
2022/08/09 02:37:13;;;;;;;2.88;2.55;;;20.30;90.40;;;;;;5096272;27;20217;-40
2022/08/09 02:39:48;;;;;;;3.75;2.35;;;20.30;90.60;;;;;;5117931;27;20229;-38
2022/08/09 02:42:26;;;;;;;3.72;2.33;;;20.30;90.60;;;;;;5111366;27;20786;-38
2022/08/09 02:45:03;;;;;;;2.58;2.30;;;20.30;90.50;;;;;;5114412;27;20209;-38
2022/08/09 02:47:35;;;;;;;3.17;2.55;;;20.20;90.50;;;;;;5128681;27;20284;-38
2022/08/09 02:50:27;;;;;;;3.45;2.60;;;20.20;90.60;;;;;;5109083;27;20686;-38
2022/08/09 02:53:05;;;;;;;3.90;2.50;;;20.20;90.60;;;;;;5126469;27;20193;-39
2022/08/09 02:55:37;;;;;;;4.03;2.58;;;20.20;91.00;;;;;;5123203;27;20237;-38
2022/08/09 02:58:29;;;;;;;3.95;2.80;;;20.20;90.60;;;;;;5111045;27;20795;-38
2022/08/09 03:01:09;;;;;;;3.35;2.75;;;20.10;90.60;;;;;;5117286;27;20346;-38
2022/08/09 03:03:48;;;;;;;6.00;3.05;;;20.10;90.90;;;;;;5114180;27;20197;-38
2022/08/09 03:06:40;;;;;;;4.78;2.88;;;20.10;91.30;;;;;;5113037;27;20216;-38
2022/08/09 03:09:09;;;;;;;3.28;2.60;;;20.10;91.60;;;;;;5122465;27;20297;-38
2022/08/09 03:11:40;;;;;;;3.08;2.88;;;20.20;91.10;;;;;;5110079;27;20287;-38
2022/08/09 03:14:30;;;;;;;3.65;3.03;;;20.10;91.40;;;;;;5118245;27;20202;-38
2022/08/09 03:17:03;;;;;;;5.20;3.08;;;20.10;91.60;;;;;;5123880;27;20711;-39
2022/08/09 03:19:35;;;;;;;4.55;3.25;;;20.00;92.10;;;;;;5138324;27;20241;-39
2022/08/09 03:22:23;;;;;;;3.40;3.10;;;20.00;91.40;;;;;;5122434;27;20211;-38
2022/08/09 03:24:58;;;;;;;4.85;2.95;;;19.90;91.30;;;;;;5110343;28;20210;-38
2022/08/09 03:27:49;;;;;;;3.85;3.25;;;19.90;91.30;;;;;;5093220;28;20212;-39
2022/08/09 03:30:18;;;;;;;3.47;2.80;;;19.90;92.10;;;;;;5112905;28;20556;-39
2022/08/09 03:33:06;;;;;;;5.28;3.38;;;19.90;91.80;;;;;;5108853;28;20218;-38
2022/08/09 03:35:48;;;;;;;4.68;3.20;;;19.80;91.50;;;;;;5118335;28;20748;-38
2022/08/09 03:38:42;;;;;;;4.43;3.20;;;19.80;91.80;;;;;;5122275;28;20310;-38
2022/08/09 03:41:12;;;;;;;3.83;3.17;;;19.80;91.50;;;;;;5118549;28;20682;-38
2022/08/09 03:43:45;;;;;;;5.10;3.33;;;19.80;91.90;;;;;;5117278;28;20232;-39
2022/08/09 03:46:35;;;;;;;5.10;3.42;;;19.70;91.50;;;;;;5112137;28;20571;-39
2022/08/09 03:49:04;;;;;;;4.80;3.30;;;19.70;92.50;;;;;;5095489;28;20202;-38
2022/08/09 03:51:39;;;;;;;5.00;2.83;;;19.60;91.90;;;;;;5111287;28;20316;-38
2022/08/09 03:54:30;;;;;;;5.70;3.28;;;19.60;91.80;;;;;;5108381;28;20328;-38
2022/08/09 03:57:05;;;;;;;5.82;3.03;;;19.60;91.70;;;;;;5118329;28;21111;-38
2022/08/09 03:59:51;;;;;;;4.82;3.40;;;19.60;91.70;;;;;;5115223;28;20218;-39
2022/08/09 04:02:27;;;;;;;4.00;3.42;;;19.50;91.70;;;;;;5098516;28;21047;-39
2022/08/09 04:04:59;;;;;;;5.25;3.33;;;19.50;92.00;;;;;;5100667;28;20208;-38
2022/08/09 04:07:33;;;;;;;5.80;3.00;;;19.50;91.90;;;;;;5126226;28;20221;-38
2022/08/09 04:10:21;;;;;;;4.68;3.90;;;19.50;92.00;;;;;;5108912;28;20216;-39
2022/08/09 04:12:59;;;;;;;5.50;3.63;;;19.50;91.70;;;;;;5109121;28;20287;-38
2022/08/09 04:15:31;;;;;;;3.42;2.95;;;19.50;91.80;;;;;;5107106;28;20209;-38
2022/08/09 04:18:18;;;;;;;5.15;3.40;;;19.50;91.60;;;;;;5114787;27;20213;-38
2022/08/09 04:20:49;;;;;;;4.88;2.97;;;19.50;91.70;;;;;;5098586;28;20540;-38
2022/08/09 04:23:19;;;;;;;4.38;3.70;;;19.40;91.80;;;;;;5098342;28;20194;-39
2022/08/09 04:25:52;;;;;;;4.28;3.60;;;19.50;91.90;;;;;;5096312;28;20206;-40
2022/08/09 04:28:23;;;;;;;7.38;4.13;;;19.50;92.00;;;;;;5120849;28;20884;-39
2022/08/09 04:31:06;;;;;;;5.68;3.50;;;19.50;92.20;;;;;;5118499;27;20206;-40
2022/08/09 04:33:39;;;;;;;7.40;4.28;;;19.40;92.10;;;;;;5119133;27;20567;-39
2022/08/09 04:36:24;;;;;;;4.30;3.65;;;19.40;92.10;;;;;;5129046;27;20218;-39
2022/08/09 04:38:53;;;;;;;5.05;3.83;;;19.40;92.10;;;;;;5121761;27;20209;-39
2022/08/09 04:41:24;;;;;;;5.72;3.80;;;19.40;92.00;;;;;;5108537;27;20206;-39
2022/08/09 04:44:01;;;;;;;4.10;3.70;;;19.30;92.00;;;;;;5125530;27;20311;-40
2022/08/09 04:46:36;;;;;;;4.57;3.50;;;19.30;91.90;;;;;;5128504;27;20221;-39
2022/08/09 04:49:24;;;;;;;3.92;3.53;;;19.40;92.30;;;;;;5123953;27;20298;-38
2022/08/09 04:52:12;;;;;;;5.18;3.63;;;19.30;91.90;;;;;;5107680;27;20692;-39
2022/08/09 04:54:50;;;;;;;5.28;3.60;;;19.30;92.00;;;;;;5095416;27;20833;-38
2022/08/09 04:57:21;;;;;;;3.90;3.50;;;19.30;92.30;;;;;;5119393;27;20236;-38
2022/08/09 04:59:54;;;;;;;4.47;3.70;;;19.30;92.10;;;;;;5094218;28;20235;-39
2022/08/09 05:02:23;;;;;;;3.75;3.40;;;19.30;92.10;;;;;;5112387;27;20233;-38
2022/08/09 05:04:53;;;;;;;5.28;4.03;;;19.30;92.20;;;;;;5108831;27;20248;-39
2022/08/09 05:07:22;;;;;;;6.05;4.15;;;19.30;92.40;;;;;;5126200;27;20648;-40
2022/08/09 05:09:50;;;;;;;3.88;3.45;;;19.30;92.80;;;;;;5130821;27;20721;-40
2022/08/09 05:12:19;;;;;;;6.45;4.20;;;19.30;92.60;;;;;;5132218;27;20240;-39
2022/08/09 05:14:56;;;;;;;5.30;4.00;;;19.30;92.50;;;;;;5118754;27;20205;-38
2022/08/09 05:17:26;;;;;;;5.65;4.30;;;19.30;92.60;;;;;;5113523;27;20310;-38
2022/08/09 05:20:13;;;;;;;6.28;3.95;;;19.30;92.70;;;;;;5105765;27;20197;-38
2022/08/09 05:22:40;;;;;;;6.25;4.85;;;19.30;92.90;;;;;;5128588;27;20210;-38
2022/08/09 05:25:27;;;;;;;6.55;4.65;;;19.30;93.50;;;;;;5115358;27;20202;-39
2022/08/09 05:27:58;;;;;;;7.32;4.90;;;19.30;93.50;;;;;;5101475;28;20669;-39
2022/08/09 05:30:26;;;;;;;5.10;4.60;;;19.20;93.00;;;;;;5111832;27;20312;-38
2022/08/09 05:32:57;;;;;;;9.00;4.88;;;19.30;93.80;;;;;;5117685;27;20193;-39
2022/08/09 05:35:25;;;;;;;6.47;4.88;;;19.20;93.80;;;;;;5127032;27;20198;-38
2022/08/09 05:37:55;;;;;;;7.68;4.97;;;19.20;94.00;;;;;;5115560;27;20696;-38
2022/08/09 05:40:30;;;;;;;5.75;4.88;;;19.20;94.30;;;;;;5110428;28;20206;-39
2022/08/09 05:42:57;;;;;;;7.25;4.85;;;19.20;93.80;;;;;;5098913;27;20208;-38
2022/08/09 05:45:25;;;;;;;10.18;5.20;;;19.10;93.50;;;;;;5112699;27;20206;-38
2022/08/09 05:48:12;;;;;;;9.55;5.97;;;19.10;93.60;;;;;;5137726;27;20228;-38
2022/08/09 05:50:47;;;;;;;8.55;4.75;;;19.10;94.70;;;;;;5131688;27;20199;-38
2022/08/09 05:53:34;;;;;;;8.55;5.43;;;19.10;94.00;;;;;;5113527;27;20855;-38
2022/08/09 05:56:21;;;;;;;8.77;5.78;;;19.10;94.10;;;;;;5136162;27;20208;-38
2022/08/09 05:58:56;;;;;;;6.32;4.80;;;19.10;94.80;;;;;;5150977;27;20264;-39
2022/08/09 06:01:28;;;;;;;8.05;5.43;;;19.10;94.10;;;;;;5115667;27;20194;-39
2022/08/09 06:04:08;;;;;;;5.65;4.90;;;19.10;93.80;;;;;;5122239;27;20214;-38
2022/08/09 06:06:38;;;;;;;9.73;5.00;;;19.10;94.30;;;;;;5109581;28;20263;-38
2022/08/09 06:09:16;;;;;;;9.23;5.88;;;19.10;93.90;;;;;;5093118;28;20206;-38
2022/08/09 06:12:03;;;;;;;6.43;4.85;;;19.10;94.60;;;;;;5109823;28;20566;-38
2022/08/09 06:14:34;;;;;;;7.22;5.22;;;19.10;94.30;;;;;;5109283;27;20320;-38
2022/08/09 06:17:01;;;;;;;11.07;5.10;;;19.20;94.40;;;;;;5109928;28;20293;-39
2022/08/09 06:19:35;;;;;;;8.63;5.32;;;19.20;94.30;;;;;;5119489;27;20203;-38
2022/08/09 06:22:03;;;;;;;8.60;6.03;;;19.30;94.30;;;;;;5133758;27;20222;-39
2022/08/09 06:24:33;;;;;;;6.25;5.00;;;19.30;95.00;;;;;;5112679;27;20296;-39
2022/08/09 06:27:01;;;;;;;7.30;5.43;;;19.40;94.70;;;;;;5129275;27;20193;-38
2022/08/09 06:29:28;;;;;;;7.95;5.47;;;19.40;94.30;;;;;;5127729;27;20224;-38
2022/08/09 06:31:55;;;;;;;8.65;5.78;;;19.40;94.40;;;;;;5117360;27;20305;-39
2022/08/09 06:34:43;;;;;;;8.25;5.30;;;19.50;94.90;;;;;;5127114;27;20189;-38
2022/08/09 06:37:12;;;;;;;8.45;5.25;;;19.50;94.60;;;;;;5112801;27;20631;-38
2022/08/09 06:39:39;;;;;;;6.95;4.90;;;19.50;94.70;;;;;;5121028;27;20254;-37
2022/08/09 06:42:28;;;;;;;8.68;5.25;;;19.50;94.60;;;;;;5128656;27;20206;-38
2022/08/09 06:45:01;;;;;;;4.85;4.45;;;19.50;94.40;;;;;;5114099;27;20205;-38
2022/08/09 06:47:51;;;;;;;5.45;4.60;;;19.60;94.30;;;;;;5107939;27;20210;-38
2022/08/09 06:50:27;;;;;;;6.45;4.97;;;19.60;94.40;;;;;;5116716;27;20217;-38
2022/08/09 06:52:59;;;;;;;5.95;4.70;;;19.70;94.70;;;;;;5124808;27;20229;-38
2022/08/09 06:55:30;;;;;;;5.38;4.50;;;19.70;94.40;;;;;;5139387;27;20217;-38
2022/08/09 06:57:58;;;;;;;8.13;4.22;;;19.80;94.40;;;;;;5107503;28;20246;-38
2022/08/09 07:00:31;;;;;;;5.70;4.43;;;19.80;94.40;;;;;;5127048;27;20792;-38
2022/08/09 07:03:21;;;;;;;5.53;4.32;;;19.90;94.40;;;;;;5117998;27;20725;-36
2022/08/09 07:05:55;;;;;;;6.45;4.43;;;19.90;94.90;;;;;;5105875;27;20280;-35
2022/08/09 07:08:35;;;;;;;4.72;4.30;;;20.00;94.80;;;;;;5114494;27;20233;-34
2022/08/09 07:11:05;;;;;;;6.00;4.75;;;20.10;94.90;;;;;;5126084;27;20200;-35
2022/08/09 07:13:35;;;;;;;6.18;4.75;;;20.20;94.70;;;;;;5116212;27;20289;-37
2022/08/09 07:16:25;;;;;;;6.43;4.13;;;20.30;95.20;;;;;;5112224;27;20201;-36
2022/08/09 07:19:12;;;;;;;9.15;4.38;;;20.30;94.80;;;;;;5123058;27;20225;-35
2022/08/09 07:21:45;;;;;;;11.13;4.03;;;20.30;95.20;;;;;;5119300;27;20209;-35
2022/08/09 07:24:32;;;;;;;8.02;4.47;;;20.40;94.90;;;;;;5111800;27;20197;-35
2022/08/09 07:27:12;;;;;;;7.45;4.65;;;20.50;95.10;;;;;;5108779;28;20200;-35
2022/08/09 07:30:02;;;;;;;7.45;4.78;;;20.60;95.00;;;;;;5104471;28;20210;-35
2022/08/09 07:32:31;;;;;;;5.95;4.57;;;20.60;95.40;;;;;;5089383;28;20591;-34
2022/08/09 07:35:02;;;;;;;7.22;4.40;;;20.70;95.20;;;;;;5090356;28;20628;-34
2022/08/09 07:37:38;;;;;;;5.10;3.88;;;20.80;95.10;;;;;;5124858;28;20220;-34
2022/08/09 07:40:18;;;;;;;5.13;4.00;;;20.80;95.00;;;;;;5107546;27;20210;-34
2022/08/09 07:42:57;;;;;;;5.30;3.60;;;20.80;94.90;;;;;;5114313;28;20621;-35
2022/08/09 07:45:26;;;;;;;6.85;3.50;;;20.90;94.90;;;;;;5106734;28;20850;-35
2022/08/09 07:48:10;;;;;;;5.45;3.28;;;20.90;95.00;;;;;;5111291;28;20221;-34
2022/08/09 07:50:58;;;;;;;7.07;3.42;;;21.00;95.20;;;;;;5121758;28;20572;-35
2022/08/09 07:53:50;;;;;;;9.02;4.75;;;21.10;95.00;;;;;;5115462;27;20197;-36
2022/08/09 07:56:35;;;;;;;10.02;4.32;;;21.10;95.10;;;;;;5116858;28;20810;-35
2022/08/09 07:59:19;;;;;;;6.57;3.78;;;21.20;95.00;;;;;;5127319;28;20225;-39
2022/08/09 08:02:09;;;;;;;8.20;3.67;;;21.20;94.90;;;;;;5127483;28;20191;-39
2022/08/09 08:04:42;;;;;;;6.63;3.28;;;21.30;94.90;;;;;;5121722;28;20285;-40
2022/08/09 08:07:15;;;;;;;4.60;2.85;;;21.40;94.80;;;;;;5094913;27;20560;-39
2022/08/09 08:10:04;;;;;;;4.80;3.22;;;21.40;94.80;;;;;;5115089;27;20652;-39
2022/08/09 08:12:42;;;;;;;5.90;3.00;;;21.50;94.80;;;;;;5116177;27;20300;-39
2022/08/09 08:15:18;;;;;;;5.82;2.97;;;21.50;94.80;;;;;;5111137;27;20664;-39
2022/08/09 08:17:51;;;;;;;3.97;3.58;;;21.60;94.80;;;;;;5125489;27;20217;-40
2022/08/09 08:20:26;;;;;;;5.45;3.55;;;21.70;94.70;;;;;;5128086;27;20203;-39
2022/08/09 08:22:59;;;;;;;5.75;3.50;;;21.80;94.60;;;;;;5120034;27;20209;-39
2022/08/09 08:25:46;;;;;;;4.25;2.92;;;21.80;94.60;;;;;;5118081;27;20229;-39
2022/08/09 08:28:16;;;;;;;6.35;2.63;;;21.90;94.50;;;;;;5104591;27;20209;-39
2022/08/09 08:30:52;;;;;;;7.45;3.53;;;21.90;94.60;;;;;;5128771;27;20241;-39
2022/08/09 08:33:26;;;;;;;4.85;3.40;;;22.00;94.50;;;;;;5110551;28;20194;-41
2022/08/09 08:36:13;;;;;;;5.00;2.88;;;22.10;94.50;;;;;;5111125;27;20878;-40
2022/08/09 08:38:59;;;;;;;6.15;2.95;;;22.10;94.60;;;;;;5111874;27;20742;-39
2022/08/09 08:41:27;;;;;;;7.18;3.22;;;22.20;94.60;;;;;;5124840;27;20254;-39
2022/08/09 08:44:17;;;;;;;6.45;3.35;;;22.20;94.60;;;;;;5108096;27;20213;-40
2022/08/09 08:46:59;;;;;;;6.85;3.13;;;22.30;94.60;;;;;;5119688;27;20300;-39
2022/08/09 08:49:39;;;;;;;9.93;2.80;;;22.30;94.60;;;;;;5121803;27;20198;-40
2022/08/09 08:52:20;;;;;;;9.20;3.30;;;22.50;94.50;;;;;;5123490;27;20212;-40
2022/08/09 08:55:09;;;;;;;3.28;2.65;;;22.50;94.40;;;;;;5113897;27;20206;-39
2022/08/09 08:57:36;;;;;;;5.20;3.00;;;22.60;94.40;;;;;;5122665;27;20234;-39
2022/08/09 09:00:09;;;;;;;7.25;2.90;;;22.70;94.30;;;;;;5109902;27;20190;-41
2022/08/09 09:02:52;;;;;;;6.10;2.70;;;22.70;94.10;;;;;;5123065;27;20703;-40
2022/08/09 09:05:23;;;;;;;3.72;2.83;;;22.70;94.00;;;;;;5111158;27;20200;-40
2022/08/09 09:08:14;;;;;;;4.88;2.80;;;22.70;94.00;;;;;;5127823;27;20288;-40
2022/08/09 09:11:02;;;;;;;6.65;2.17;;;22.80;94.00;;;;;;5102714;27;20206;-40
2022/08/09 09:13:39;;;;;;;7.03;2.33;;;22.90;94.20;;;;;;5129993;27;20578;-39
2022/08/09 09:16:28;;;;;;;5.30;2.75;;;22.90;94.20;;;;;;5094362;28;20636;-39
2022/08/09 09:19:00;;;;;;;3.88;2.22;;;22.90;94.10;;;;;;5118138;27;20231;-38
2022/08/09 09:22:04;;;;;;;5.00;2.40;;;23.00;94.00;;;;;;5113851;27;20573;-39
2022/08/09 09:24:48;;;;;;;5.47;2.05;;;23.20;94.10;;;;;;5130292;27;20205;-39
2022/08/09 09:27:19;;;;;;;3.25;2.35;;;23.20;93.90;;;;;;5130058;27;20686;-39
2022/08/09 09:30:16;;;;;;;6.80;1.75;;;23.30;93.40;;;;;;5124406;27;20205;-39
2022/08/09 09:33:11;;;;;;;7.18;2.00;;;23.30;93.60;;;;;;5122974;27;20626;-39
2022/08/09 09:35:58;;;;;;;5.22;2.53;;;23.30;93.70;;;;;;5112279;27;20262;-39
2022/08/09 09:38:43;;;;;;;5.57;1.92;;;23.50;93.10;;;;;;5126630;27;20225;-40
2022/08/09 09:41:25;;;;;;;4.65;2.13;;;23.50;93.50;;;;;;5125058;27;20301;-40
2022/08/09 09:44:03;;;;;;;7.30;2.53;;;23.50;93.50;;;;;;5113480;27;20233;-40
2022/08/09 09:46:42;;;;;;;5.13;2.40;;;23.50;92.50;;;;;;5118219;27;20190;-41
2022/08/09 09:49:20;;;;;;;7.75;2.33;;;23.60;93.40;;;;;;5115382;27;20633;-41
2022/08/09 09:52:10;;;;;;;4.63;2.08;;;23.70;92.90;;;;;;5127583;27;20194;-41
2022/08/09 09:55:08;;;;;;;7.65;1.88;;;23.70;92.40;;;;;;5113796;27;20238;-40
2022/08/09 09:58:06;;;;;;;13.55;2.83;;;23.70;93.00;;;;;;5111196;27;20793;-40
2022/08/09 10:00:56;;;;;;;7.43;2.78;;;23.80;93.00;;;;;;5127188;27;20218;-40
2022/08/09 10:03:42;;;;;;;5.93;1.80;;;23.80;92.30;;;;;;5116322;27;20684;-39
2022/08/09 10:06:13;;;;;;;3.58;2.13;;;23.90;93.10;;;;;;5117357;27;20220;-39
2022/08/09 10:08:42;;;;;;;3.50;1.90;;;24.00;92.10;;;;;;5097373;27;20274;-39
2022/08/09 10:11:28;;;;;;;4.63;2.50;;;24.00;92.00;;;;;;5127782;27;20632;-39
2022/08/09 10:14:29;;;;;;;5.47;2.00;;;24.10;92.30;;;;;;5103503;28;20301;-39
2022/08/09 10:17:12;;;;;;;6.40;1.95;;;24.10;92.80;;;;;;5111752;27;20325;-39
2022/08/09 10:20:03;;;;;;;6.30;2.70;;;24.20;92.30;;;;;;5115865;27;20214;-40
2022/08/09 10:22:35;;;;;;;4.40;2.10;;;24.30;91.80;;;;;;5121357;27;20194;-40
2022/08/09 10:25:05;;;;;;;3.03;2.28;;;24.30;92.20;;;;;;5090433;28;20209;-40
2022/08/09 10:27:45;;;;;;;6.03;2.15;;;24.40;92.50;;;;;;5122812;27;20303;-40
2022/08/09 10:30:29;;;;;;;1.90;1.70;;;24.40;92.00;;;;;;5107756;27;20220;-40
2022/08/09 10:33:17;;;;;;;3.35;1.80;;;24.40;92.40;;;;;;5123539;27;20194;-40
2022/08/09 10:36:09;;;;;;;4.97;1.92;;;24.50;92.50;;;;;;5112034;27;20656;-40
2022/08/09 10:38:41;;;;;;;4.50;2.05;;;24.50;92.30;;;;;;5108529;27;20221;-40
2022/08/09 10:41:28;;;;;;;4.50;2.15;;;24.60;92.20;;;;;;5093030;27;20202;-39
2022/08/09 10:44:00;;;;;;;3.88;1.80;;;24.60;91.80;;;;;;5104042;28;20194;-39
2022/08/09 10:46:31;;;;;;;4.20;1.80;;;24.60;91.90;;;;;;5123124;27;20222;-40
2022/08/09 10:49:17;;;;;;;4.72;2.00;;;24.70;91.80;;;;;;5116768;27;20406;-39
2022/08/09 10:52:14;;;;;;;5.00;1.70;;;24.70;91.80;;;;;;5126409;27;20209;-39
2022/08/09 10:54:50;;;;;;;2.13;1.70;;;24.80;92.40;;;;;;5124536;27;20213;-39
2022/08/09 10:57:22;;;;;;;2.47;1.70;;;24.90;92.40;;;;;;5115143;27;20210;-40
2022/08/09 10:59:49;;;;;;;5.63;2.00;;;25.00;92.00;;;;;;5116732;27;20233;-37
2022/08/09 11:02:40;;;;;;;3.58;2.03;;;25.00;92.10;;;;;;5119495;27;20233;-41
2022/08/09 11:05:27;;;;;;;5.50;1.90;;;25.00;92.00;;;;;;5115076;27;20288;-40
2022/08/09 11:08:35;;;;;;;4.65;1.80;;;25.00;92.10;;;;;;5109987;27;20739;-40
2022/08/09 11:11:17;;;;;;;1.92;1.33;;;25.10;92.20;;;;;;5104311;27;20293;-47
2022/08/09 11:13:45;;;;;;;3.45;1.70;;;25.20;92.30;;;;;;5122985;27;20229;-46
2022/08/09 11:16:36;;;;;;;3.30;1.80;;;25.20;92.30;;;;;;5109666;27;20216;-48
2022/08/09 11:19:09;;;;;;;2.58;1.60;;;25.20;92.60;;;;;;5116697;27;20214;-51
2022/08/09 11:21:53;;;;;;;3.10;1.48;;;25.30;92.50;;;;;;5121223;27;20238;-52
2022/08/09 11:25:07;;;;;;;3.03;1.50;;;25.30;92.20;;;;;;5108538;28;20794;-43
2022/08/09 11:27:43;;;;;;;3.67;1.42;;;25.30;91.40;;;;;;5115712;27;20205;-44
2022/08/09 11:30:32;;;;;;;1.77;1.13;;;25.30;92.20;;;;;;5115591;27;20232;-50
2022/08/09 11:33:04;;;;;;;3.58;2.05;;;25.40;92.70;;;;;;5125021;27;20193;-44
2022/08/09 11:35:55;;;;;;;3.30;1.80;;;25.50;92.20;;;;;;5111028;27;20206;-43
2022/08/09 11:38:27;;;;;;;1.65;1.35;;;25.50;91.10;;;;;;5126442;27;20222;-44
2022/08/09 11:41:10;;;;;;;1.42;1.33;;;25.50;91.90;;;;;;5108684;27;20571;-45
2022/08/09 11:43:47;;;;;;;3.40;1.67;;;25.60;91.60;;;;;;5087995;28;20221;-43
2022/08/09 11:46:15;;;;;;;3.25;1.55;;;25.60;91.50;;;;;;5130910;27;20202;-43
2022/08/09 11:49:00;;;;;;;5.45;1.30;;;25.70;91.80;;;;;;5127272;27;20201;-45
2022/08/09 11:52:03;;;;;;;3.08;1.42;;;25.70;91.90;;;;;;5122515;27;20208;-46
2022/08/09 11:55:29;;;;;;;6.15;1.80;;;25.80;91.90;;;;;;5111407;27;20201;-44
2022/08/09 11:58:19;;;;;;;5.47;1.83;;;25.90;91.30;;;;;;5110582;27;20234;-44
2022/08/09 12:01:10;;;;;;;5.32;1.60;;;25.90;90.80;;;;;;5109109;27;20278;-44
2022/08/09 12:04:02;;;;;;;2.30;1.40;;;25.90;91.20;;;;;;5127198;27;20686;-44
2022/08/09 12:06:32;;;;;;;2.33;1.50;;;25.90;90.90;;;;;;5108968;27;20217;-44
2022/08/09 12:09:08;;;;;;;3.03;1.35;;;25.90;90.90;;;;;;5129141;27;20240;-44
2022/08/09 12:12:00;;;;;;;2.75;1.33;;;25.90;90.80;;;;;;5122836;27;20198;-45
2022/08/09 12:14:33;;;;;;;1.52;1.10;;;26.00;91.20;;;;;;5117246;27;20266;-45
2022/08/09 12:17:20;;;;;;;3.92;1.23;;;26.10;91.80;;;;;;5128731;27;20202;-46
2022/08/09 12:20:16;;;;;;;2.35;1.40;;;26.10;91.80;;;;;;5129440;27;20217;-44
2022/08/09 12:22:58;;;;;;;2.15;1.13;;;26.20;91.60;;;;;;5124554;27;20579;-43
2022/08/09 12:25:27;;;;;;;5.15;1.67;;;26.30;91.70;;;;;;5112125;27;20300;-43
2022/08/09 12:28:20;;;;;;;1.90;1.42;;;26.30;90.90;;;;;;5108966;27;20258;-45
2022/08/09 12:31:27;;;;;;;2.88;1.30;;;26.40;91.10;;;;;;5109890;28;20225;-44
2022/08/09 12:34:16;;;;;;;3.58;1.70;;;26.50;91.60;;;;;;5096837;27;20214;-42
2022/08/09 12:36:54;;;;;;;2.90;1.58;;;26.50;90.60;;;;;;5119306;27;20230;-43
2022/08/09 12:39:42;;;;;;;3.85;1.60;;;26.60;89.50;;;;;;5112384;27;20232;-42
2022/08/09 12:42:13;;;;;;;4.05;1.25;;;26.60;89.70;;;;;;5127678;27;20202;-43
2022/08/09 12:44:43;;;;;;;6.00;1.38;;;26.70;89.90;;;;;;5110214;27;20202;-42
2022/08/09 12:47:19;;;;;;;2.63;1.35;;;26.70;89.70;;;;;;5109010;27;20188;-43
2022/08/09 12:52:43;;;;;;;5.20;1.50;;;26.80;90.90;;;;;;5120908;27;20198;-42
2022/08/09 12:55:32;;;;;;;2.53;1.40;;;26.80;90.50;;;;;;5114706;27;20209;-44
2022/08/09 12:58:21;;;;;;;2.65;1.02;;;26.80;90.20;;;;;;5121785;27;20567;-44
2022/08/09 13:00:57;;;;;;;3.47;1.30;;;26.90;90.20;;;;;;5129034;27;20232;-44
2022/08/09 13:03:31;;;;;;;4.18;1.10;;;26.90;90.50;;;;;;5116908;27;20194;-42
2022/08/09 13:06:33;;;;;;;1.77;1.05;;;27.00;90.00;;;;;;5107174;27;20212;-44
2022/08/09 13:09:04;;;;;;;2.58;1.50;;;27.10;90.30;;;;;;5123554;27;20759;-45
2022/08/09 13:11:37;;;;;;;2.50;1.02;;;27.10;90.30;;;;;;5110039;27;20594;-45
2022/08/09 13:14:11;;;;;;;1.60;0.93;;;27.10;90.30;;;;;;5126306;27;20294;-44
2022/08/09 13:17:04;;;;;;;2.92;1.40;;;27.20;90.40;;;;;;5123829;27;20685;-45
2022/08/09 13:19:39;;;;;;;1.70;1.30;;;27.30;90.00;;;;;;5136339;27;20259;-44
2022/08/09 13:22:27;;;;;;;3.67;1.17;;;27.30;90.60;;;;;;5141193;27;20205;-45
2022/08/09 13:25:05;;;;;;;1.63;0.95;;;27.40;90.20;;;;;;5109610;27;20197;-44
2022/08/09 13:27:38;;;;;;;1.48;1.00;;;27.40;90.00;;;;;;5114737;27;20205;-44
2022/08/09 13:30:23;;;;;;;1.60;0.98;;;27.40;89.80;;;;;;5120062;27;20312;-45
2022/08/09 13:33:21;;;;;;;3.15;1.15;;;27.50;89.20;;;;;;5122550;27;20197;-45
2022/08/09 13:35:49;;;;;;;2.55;1.08;;;27.50;89.70;;;;;;5122874;27;20522;-44
2022/08/09 13:38:36;;;;;;;9.77;1.83;;;27.50;89.00;;;;;;5123424;27;20237;-44
2022/08/09 13:41:24;;;;;;;1.60;0.88;;;27.60;87.00;;;;;;5115385;27;20723;-44
2022/08/09 13:44:11;;;;;;;1.23;0.98;;;27.60;89.70;;;;;;5118681;27;20213;-43
2022/08/09 13:46:46;;;;;;;1.75;1.02;;;27.60;86.50;;;;;;5130784;27;20663;-44
2022/08/09 13:49:37;;;;;;;2.25;1.25;;;27.60;85.50;;;;;;5121509;27;20213;-44
2022/08/09 13:52:26;;;;;;;1.73;0.90;;;27.70;87.40;;;;;;5108487;27;20692;-43